Time;durP1;ratioP1;P1;durP2;ratioP2;P2;SDS_P1;SDS_P2;PMS_P1;PMS_P2;Temp;Humidity;BMP_temperature;BMP_pressure;BME280_temperature;BME280_humidity;BME280_pressure;Samples;Min_cycle;Max_cycle;Signal;HPM_P1;HPM_P2
2023/10/22 00:02:17;;;;;;;10.77;10.10;;;11.90;99.90;;;;;;4924931;29;20701;-79
2023/10/22 00:04:44;;;;;;;10.83;10.13;;;11.90;99.90;;;;;;4926682;29;20259;-79
2023/10/22 00:07:14;;;;;;;10.97;10.17;;;11.90;99.90;;;;;;4922928;29;20229;-79
2023/10/22 00:09:41;;;;;;;10.50;9.80;;;11.80;99.90;;;;;;4925271;29;20581;-79
2023/10/22 00:12:08;;;;;;;10.30;9.70;;;11.80;99.90;;;;;;4925020;29;20192;-79
2023/10/22 00:14:37;;;;;;;10.50;9.80;;;11.80;99.90;;;;;;4925753;29;20226;-79
2023/10/22 00:17:04;;;;;;;10.53;9.73;;;11.80;99.90;;;;;;4921503;29;20218;-79
2023/10/22 00:19:45;;;;;;;9.97;9.37;;;11.80;99.90;;;;;;4929080;29;20207;-79
2023/10/22 00:22:14;;;;;;;10.23;9.63;;;11.80;99.90;;;;;;4928972;29;20601;-79
2023/10/22 00:24:43;;;;;;;10.07;9.47;;;11.80;99.90;;;;;;4931560;29;20208;-79
2023/10/22 00:27:10;;;;;;;10.40;9.80;;;11.80;99.90;;;;;;4925717;29;20221;-79
2023/10/22 00:29:38;;;;;;;10.37;9.77;;;11.80;99.90;;;;;;4926554;29;20574;-79
2023/10/22 00:32:05;;;;;;;10.77;10.00;;;11.70;99.90;;;;;;4926027;29;20274;-79
2023/10/22 00:34:33;;;;;;;10.83;10.13;;;11.70;99.90;;;;;;4926906;29;20623;-79
2023/10/22 00:36:59;;;;;;;10.90;10.20;;;11.70;99.90;;;;;;4923244;29;20230;-79
2023/10/22 00:39:26;;;;;;;10.27;9.67;;;11.60;99.90;;;;;;4932297;29;20200;-79
2023/10/22 00:41:53;;;;;;;10.33;9.73;;;11.60;99.90;;;;;;4928576;29;20594;-79
2023/10/22 00:44:20;;;;;;;10.30;9.70;;;11.60;99.90;;;;;;4923840;29;20204;-79
2023/10/22 00:46:48;;;;;;;10.40;9.80;;;11.50;99.90;;;;;;4926199;29;20224;-79
2023/10/22 00:49:17;;;;;;;10.03;9.43;;;11.50;99.90;;;;;;4928536;29;20737;-79
2023/10/22 00:51:44;;;;;;;10.00;9.30;;;11.40;99.90;;;;;;4937132;29;20215;-78
2023/10/22 00:54:12;;;;;;;9.43;8.93;;;11.40;99.90;;;;;;4926757;29;20622;-79
2023/10/22 00:56:40;;;;;;;10.43;9.83;;;11.40;99.90;;;;;;4921216;29;20244;-79
2023/10/22 00:59:08;;;;;;;10.47;9.87;;;11.30;99.90;;;;;;4920882;29;20246;-78
2023/10/22 01:01:35;;;;;;;10.83;10.10;;;11.30;99.90;;;;;;4923574;29;20668;-79
2023/10/22 01:04:04;;;;;;;10.50;9.90;;;11.20;99.90;;;;;;4925639;29;20212;-79
2023/10/22 01:06:31;;;;;;;10.50;9.90;;;11.20;99.90;;;;;;4925774;29;20266;-79
2023/10/22 01:08:59;;;;;;;10.40;9.70;;;11.20;99.90;;;;;;4929168;29;20201;-79
2023/10/22 01:11:27;;;;;;;10.43;9.80;;;11.20;99.90;;;;;;4928495;29;20592;-79
2023/10/22 01:13:54;;;;;;;10.27;9.67;;;11.10;99.90;;;;;;4934570;29;20199;-78
2023/10/22 01:16:21;;;;;;;10.43;9.73;;;11.10;99.90;;;;;;4929567;29;20698;-79
2023/10/22 01:18:48;;;;;;;10.40;9.80;;;11.00;99.90;;;;;;4929041;29;20205;-79
2023/10/22 01:21:16;;;;;;;11.27;10.40;;;10.90;99.90;;;;;;4917784;29;20220;-78
2023/10/22 01:23:44;;;;;;;10.77;10.17;;;10.80;99.90;;;;;;4928793;29;20237;-79
2023/10/22 01:26:14;;;;;;;10.53;9.83;;;10.60;99.90;;;;;;4934950;29;20220;-79
2023/10/22 01:28:40;;;;;;;10.90;10.20;;;10.50;99.90;;;;;;4930310;29;20232;-79
2023/10/22 01:31:10;;;;;;;10.90;10.20;;;10.40;99.90;;;;;;4925090;29;20205;-79
2023/10/22 01:33:37;;;;;;;10.87;10.27;;;10.30;99.90;;;;;;4927773;29;20208;-79
2023/10/22 01:36:04;;;;;;;11.47;10.67;;;10.20;99.90;;;;;;4920476;29;20258;-79
2023/10/22 01:38:32;;;;;;;11.10;10.40;;;10.10;99.90;;;;;;4933077;29;20207;-79
2023/10/22 01:41:04;;;;;;;10.70;10.10;;;10.00;99.90;;;;;;4935218;29;20636;-79
2023/10/22 01:43:31;;;;;;;11.50;10.70;;;9.90;99.90;;;;;;4932147;29;20215;-78
2023/10/22 01:45:58;;;;;;;11.20;10.40;;;9.90;99.90;;;;;;4929355;29;20223;-79
2023/10/22 01:48:25;;;;;;;10.33;9.63;;;9.80;99.90;;;;;;4936320;29;20259;-79
2023/10/22 01:50:51;;;;;;;10.07;9.47;;;9.80;99.90;;;;;;4927408;29;20207;-79
2023/10/22 01:53:18;;;;;;;10.33;9.63;;;9.70;99.90;;;;;;4924567;29;20207;-78
2023/10/22 01:55:45;;;;;;;10.03;9.33;;;9.70;99.90;;;;;;4928169;29;20199;-78
2023/10/22 01:58:13;;;;;;;10.23;9.43;;;9.60;99.90;;;;;;4917754;29;20303;-79
2023/10/22 02:00:41;;;;;;;10.00;9.37;;;9.50;99.90;;;;;;4922149;29;20204;-78
2023/10/22 02:03:08;;;;;;;11.67;10.87;;;9.50;99.90;;;;;;4923948;29;20230;-79
2023/10/22 02:05:35;;;;;;;11.37;10.47;;;9.50;99.90;;;;;;4923592;29;20255;-79
2023/10/22 02:08:02;;;;;;;11.30;10.60;;;9.40;99.90;;;;;;4929113;29;20210;-78
2023/10/22 02:10:30;;;;;;;11.00;10.30;;;9.40;99.90;;;;;;4927219;29;20742;-78
2023/10/22 02:12:57;;;;;;;10.27;9.67;;;9.30;99.90;;;;;;4928619;29;20286;-78
2023/10/22 02:15:26;;;;;;;10.87;10.17;;;9.30;99.90;;;;;;4930863;29;20238;-79
2023/10/22 02:17:53;;;;;;;10.97;10.17;;;9.30;99.90;;;;;;4932634;29;20305;-78
2023/10/22 02:20:20;;;;;;;10.63;10.03;;;9.20;99.90;;;;;;4927566;29;20231;-78
2023/10/22 02:22:48;;;;;;;11.00;10.40;;;9.10;99.90;;;;;;4935405;29;20223;-79
2023/10/22 02:25:15;;;;;;;11.80;10.93;;;9.10;99.90;;;;;;4933846;29;20705;-78
2023/10/22 02:27:42;;;;;;;11.83;11.13;;;9.10;99.90;;;;;;4939688;29;20732;-79
2023/10/22 02:30:10;;;;;;;12.33;11.50;;;9.10;99.90;;;;;;4927076;29;20254;-79
2023/10/22 02:32:38;;;;;;;12.53;11.73;;;9.00;99.90;;;;;;4924917;29;20199;-78
2023/10/22 02:35:06;;;;;;;12.30;11.60;;;9.00;99.90;;;;;;4924566;29;20200;-78
2023/10/22 02:37:32;;;;;;;12.27;11.47;;;9.00;99.90;;;;;;4925905;29;20749;-78
2023/10/22 02:39:59;;;;;;;12.13;11.23;;;9.00;99.90;;;;;;4927730;29;20242;-78
2023/10/22 02:42:27;;;;;;;11.67;10.97;;;9.00;99.90;;;;;;4928982;29;20560;-78
2023/10/22 02:44:54;;;;;;;11.83;10.97;;;8.90;99.90;;;;;;4932702;29;20255;-79
2023/10/22 02:47:21;;;;;;;11.73;11.03;;;9.00;99.90;;;;;;4928451;29;20299;-79
2023/10/22 02:49:56;;;;;;;12.00;11.30;;;9.00;99.90;;;;;;4927233;29;20246;-81
2023/10/22 02:52:22;;;;;;;12.33;11.43;;;9.00;99.90;;;;;;4922652;29;20203;-79
2023/10/22 02:54:49;;;;;;;12.43;11.67;;;9.00;99.90;;;;;;4926291;29;20206;-79
2023/10/22 02:57:16;;;;;;;12.17;11.30;;;8.90;99.90;;;;;;4926883;29;20303;-78
2023/10/22 02:59:43;;;;;;;11.80;11.00;;;8.90;99.90;;;;;;4928962;29;20203;-78
2023/10/22 03:02:10;;;;;;;12.47;11.60;;;8.90;99.90;;;;;;4927245;29;20203;-77
2023/10/22 03:04:37;;;;;;;12.17;11.47;;;8.90;99.90;;;;;;4925858;29;20609;-78
2023/10/22 03:07:05;;;;;;;12.27;11.57;;;8.90;99.90;;;;;;4932644;29;20215;-77
2023/10/22 03:09:33;;;;;;;12.30;11.50;;;9.00;99.90;;;;;;4919347;29;20259;-76
2023/10/22 03:11:59;;;;;;;12.20;11.40;;;9.00;99.90;;;;;;4921015;29;20200;-77
2023/10/22 03:14:26;;;;;;;11.90;11.20;;;9.00;99.90;;;;;;4922991;29;20200;-77
2023/10/22 03:16:53;;;;;;;11.90;11.20;;;9.00;99.90;;;;;;4929621;29;20231;-79
2023/10/22 03:19:20;;;;;;;12.20;11.40;;;9.00;99.90;;;;;;4923669;29;20649;-76
2023/10/22 03:21:46;;;;;;;12.57;11.77;;;9.00;99.90;;;;;;4920621;29;20747;-78
2023/10/22 03:24:17;;;;;;;12.80;11.90;;;9.10;99.90;;;;;;4929537;29;20286;-78
2023/10/22 03:26:45;;;;;;;12.00;11.30;;;9.20;99.90;;;;;;4937542;29;20629;-77
2023/10/22 03:29:12;;;;;;;11.90;11.20;;;9.20;99.90;;;;;;4934383;29;20207;-78
2023/10/22 03:31:39;;;;;;;12.30;11.60;;;9.30;99.90;;;;;;4934407;29;20203;-77
2023/10/22 03:34:06;;;;;;;12.17;11.43;;;9.40;99.90;;;;;;4936724;29;20206;-78
2023/10/22 03:36:34;;;;;;;12.70;11.90;;;9.40;99.90;;;;;;4936435;29;20278;-77
2023/10/22 03:39:01;;;;;;;12.70;12.00;;;9.50;99.90;;;;;;4936358;29;20258;-77
2023/10/22 03:41:29;;;;;;;12.07;11.37;;;9.50;99.90;;;;;;4931896;29;20204;-77
2023/10/22 03:43:56;;;;;;;12.23;11.53;;;9.50;99.90;;;;;;4932919;29;20710;-78
2023/10/22 03:46:23;;;;;;;12.53;11.73;;;9.50;99.90;;;;;;4936489;29;20230;-78
2023/10/22 03:48:51;;;;;;;11.67;10.97;;;9.50;99.90;;;;;;4936752;29;20203;-77
2023/10/22 03:51:18;;;;;;;12.23;11.50;;;9.50;99.90;;;;;;4938321;29;20628;-78
2023/10/22 03:53:46;;;;;;;12.10;11.40;;;9.50;99.90;;;;;;4936784;29;20230;-78
2023/10/22 03:56:12;;;;;;;12.10;11.40;;;9.50;99.90;;;;;;4931310;29;20729;-78
2023/10/22 03:58:41;;;;;;;11.77;11.07;;;9.50;99.90;;;;;;4936025;29;20251;-78
2023/10/22 04:01:08;;;;;;;11.73;11.03;;;9.50;99.90;;;;;;4928962;29;20206;-77
2023/10/22 04:03:34;;;;;;;11.20;10.50;;;9.50;99.90;;;;;;4925214;29;20271;-78
2023/10/22 04:06:01;;;;;;;10.40;9.80;;;9.50;99.90;;;;;;4922620;29;20220;-77
2023/10/22 04:08:28;;;;;;;10.10;9.50;;;9.50;99.90;;;;;;4925507;29;20207;-77
2023/10/22 04:10:55;;;;;;;10.10;9.50;;;9.50;99.90;;;;;;4929567;29;20570;-79
2023/10/22 04:13:22;;;;;;;10.00;9.40;;;9.40;99.90;;;;;;4926021;29;20238;-80
2023/10/22 04:15:51;;;;;;;10.10;9.50;;;9.40;99.90;;;;;;4922879;29;20196;-79
2023/10/22 04:18:19;;;;;;;10.10;9.50;;;9.40;99.90;;;;;;4980530;23;20234;-84
2023/10/22 04:20:48;;;;;;;10.00;9.30;;;9.40;99.90;;;;;;4948606;29;20302;-81
2023/10/22 04:23:15;;;;;;;9.80;9.20;;;9.40;99.90;;;;;;4945856;28;20217;-82
2023/10/22 04:25:43;;;;;;;9.67;9.07;;;9.40;99.90;;;;;;4942978;28;20205;-82
2023/10/22 04:28:11;;;;;;;9.70;9.00;;;9.40;99.90;;;;;;4936270;29;20227;-81
2023/10/22 04:30:38;;;;;;;9.80;9.20;;;9.40;99.90;;;;;;4946614;28;20209;-84
2023/10/22 04:33:09;;;;;;;9.80;9.20;;;9.50;99.90;;;;;;4940598;29;20285;-82
2023/10/22 04:35:36;;;;;;;9.93;9.33;;;9.50;99.90;;;;;;4933222;29;20219;-83
2023/10/22 04:38:04;;;;;;;10.30;9.70;;;9.30;99.90;;;;;;4944284;28;20801;-82
2023/10/22 04:40:35;;;;;;;10.60;9.90;;;9.10;99.90;;;;;;4926970;29;20207;-83
2023/10/22 04:43:02;;;;;;;9.97;9.37;;;9.00;99.90;;;;;;4937974;29;20233;-82
2023/10/22 04:45:29;;;;;;;10.33;9.70;;;8.80;99.90;;;;;;4951923;29;20187;-82
2023/10/22 04:47:56;;;;;;;9.80;9.20;;;8.80;99.90;;;;;;4937294;29;20245;-82
2023/10/22 04:50:25;;;;;;;10.90;10.30;;;8.70;99.90;;;;;;4937326;29;20207;-81
2023/10/22 04:52:52;;;;;;;11.13;10.43;;;8.60;99.90;;;;;;4939921;28;20589;-81
2023/10/22 04:55:19;;;;;;;11.13;10.43;;;8.50;99.90;;;;;;4942160;29;20282;-81
2023/10/22 04:57:46;;;;;;;11.17;10.47;;;8.40;99.90;;;;;;4925850;29;20235;-81
2023/10/22 05:00:14;;;;;;;11.30;10.60;;;8.50;99.90;;;;;;4933466;29;20216;-80
2023/10/22 05:02:40;;;;;;;10.70;10.00;;;8.50;99.90;;;;;;4922422;29;20258;-80
2023/10/22 05:05:08;;;;;;;10.67;9.97;;;8.50;99.90;;;;;;4925953;29;20249;-77
2023/10/22 05:07:36;;;;;;;11.00;10.30;;;8.60;99.90;;;;;;4954315;29;20219;-82
2023/10/22 05:10:03;;;;;;;10.60;10.00;;;8.60;99.90;;;;;;4942385;29;20198;-82
2023/10/22 05:12:29;;;;;;;10.40;9.80;;;8.70;99.90;;;;;;4929160;29;20221;-81
2023/10/22 05:14:56;;;;;;;10.40;9.70;;;8.70;99.90;;;;;;4949028;29;20195;-81
2023/10/22 05:17:24;;;;;;;10.97;10.17;;;8.60;99.90;;;;;;4933466;29;20238;-82
2023/10/22 05:19:51;;;;;;;10.33;9.70;;;8.60;99.90;;;;;;4931124;29;20287;-83
2023/10/22 05:22:19;;;;;;;10.00;9.40;;;8.50;99.90;;;;;;4928216;29;20206;-80
2023/10/22 05:24:48;;;;;;;10.30;9.70;;;8.50;99.90;;;;;;4953628;29;20233;-80
2023/10/22 05:27:15;;;;;;;10.20;9.60;;;8.50;99.90;;;;;;4927727;29;20227;-80
2023/10/22 05:29:43;;;;;;;10.30;9.70;;;8.60;99.90;;;;;;4946925;29;20206;-81
2023/10/22 05:32:09;;;;;;;10.23;9.63;;;8.60;99.90;;;;;;4936998;29;20209;-80
2023/10/22 05:34:37;;;;;;;10.80;10.10;;;8.60;99.90;;;;;;4946061;29;20214;-81
2023/10/22 05:37:04;;;;;;;10.60;9.90;;;8.60;99.90;;;;;;4953353;29;20218;-80
2023/10/22 05:39:31;;;;;;;11.47;10.77;;;8.70;99.90;;;;;;4935946;29;20210;-80
2023/10/22 05:41:59;;;;;;;10.20;9.60;;;8.70;99.90;;;;;;4945000;29;20332;-79
2023/10/22 05:44:26;;;;;;;11.20;10.60;;;8.70;99.90;;;;;;4936137;29;20214;-80
2023/10/22 05:46:53;;;;;;;11.10;10.40;;;8.70;99.90;;;;;;4928048;29;20218;-79
2023/10/22 05:49:20;;;;;;;11.00;10.40;;;8.80;99.90;;;;;;4920332;29;20572;-79
2023/10/22 05:51:47;;;;;;;10.50;9.90;;;8.80;99.90;;;;;;4953514;28;20713;-80
2023/10/22 05:54:14;;;;;;;10.50;9.90;;;8.70;99.90;;;;;;4954176;29;20195;-79
2023/10/22 05:56:41;;;;;;;10.73;10.03;;;8.70;99.90;;;;;;4932951;29;20254;-78
2023/10/22 05:59:09;;;;;;;11.33;10.63;;;8.70;99.90;;;;;;4931275;29;20210;-79
2023/10/22 06:01:38;;;;;;;11.43;10.73;;;8.70;99.90;;;;;;4931253;29;20217;-80
2023/10/22 06:04:06;;;;;;;11.07;10.47;;;8.70;99.90;;;;;;4947916;28;20322;-80
2023/10/22 06:06:33;;;;;;;11.50;10.80;;;8.70;99.90;;;;;;4944987;29;20692;-80
2023/10/22 06:09:00;;;;;;;11.37;10.67;;;8.70;99.90;;;;;;4924454;29;20266;-81
2023/10/22 06:11:26;;;;;;;11.17;10.47;;;8.70;99.90;;;;;;4935475;29;20262;-80
2023/10/22 06:13:53;;;;;;;11.30;10.60;;;8.70;99.90;;;;;;4936156;29;20724;-80
2023/10/22 06:16:21;;;;;;;11.00;10.40;;;8.70;99.90;;;;;;4934440;29;20211;-80
2023/10/22 06:18:48;;;;;;;11.20;10.50;;;8.70;99.90;;;;;;4935001;29;20227;-81
2023/10/22 06:21:16;;;;;;;11.40;10.70;;;8.70;99.90;;;;;;4952726;29;20564;-80
2023/10/22 06:23:43;;;;;;;11.60;10.90;;;8.60;99.90;;;;;;4951914;29;20214;-80
2023/10/22 06:26:11;;;;;;;12.97;11.97;;;8.60;99.90;;;;;;4928952;29;20667;-80
2023/10/22 06:28:37;;;;;;;11.77;10.97;;;8.60;99.90;;;;;;4944231;29;20733;-82
2023/10/22 06:31:05;;;;;;;11.97;11.17;;;8.60;99.90;;;;;;4953583;28;20198;-80
2023/10/22 06:33:35;;;;;;;11.90;11.20;;;8.60;99.90;;;;;;4951518;28;20201;-81
2023/10/22 06:36:12;;;;;;;12.50;11.57;;;8.60;99.90;;;;;;4937711;29;20209;-81
2023/10/22 06:38:38;;;;;;;11.60;10.83;;;8.70;99.90;;;;;;4931552;29;20226;-81
2023/10/22 06:41:06;;;;;;;11.37;10.67;;;8.80;99.90;;;;;;4948801;28;20266;-80
2023/10/22 06:43:32;;;;;;;11.20;10.50;;;8.90;99.90;;;;;;4939605;29;20238;-81
2023/10/22 06:46:00;;;;;;;11.03;10.43;;;8.90;99.90;;;;;;4932384;29;20286;-81
2023/10/22 06:48:26;;;;;;;11.87;11.07;;;9.00;99.90;;;;;;4932359;28;20225;-81
2023/10/22 06:50:55;;;;;;;10.80;10.00;;;9.10;99.90;;;;;;4950152;28;20199;-82
2023/10/22 06:53:22;;;;;;;10.53;9.73;;;9.20;99.90;;;;;;4950868;28;20199;-81
2023/10/22 06:55:49;;;;;;;10.37;9.63;;;9.30;99.90;;;;;;4936209;29;20210;-82
2023/10/22 06:58:16;;;;;;;10.30;9.50;;;9.40;99.90;;;;;;4932671;28;20221;-79
2023/10/22 07:00:43;;;;;;;10.30;9.70;;;9.50;99.90;;;;;;4956400;28;20226;-80
2023/10/22 07:03:10;;;;;;;10.33;9.73;;;9.60;99.90;;;;;;4941352;28;20203;-81
2023/10/22 07:05:37;;;;;;;10.70;10.10;;;9.70;99.90;;;;;;4960239;28;20218;-80
2023/10/22 07:08:05;;;;;;;11.00;10.40;;;9.80;99.90;;;;;;4958459;29;20222;-81
2023/10/22 07:10:32;;;;;;;10.97;10.37;;;10.00;99.90;;;;;;4960066;28;20202;-80
2023/10/22 07:12:59;;;;;;;11.27;10.67;;;10.10;99.90;;;;;;4936405;29;20612;-80
2023/10/22 07:15:26;;;;;;;11.10;10.40;;;10.20;99.90;;;;;;4960285;28;20195;-80
2023/10/22 07:17:53;;;;;;;10.83;10.13;;;10.20;99.90;;;;;;4943120;29;20249;-81
2023/10/22 07:20:22;;;;;;;11.23;10.60;;;10.30;99.90;;;;;;4940647;29;20203;-79
2023/10/22 07:22:48;;;;;;;11.27;10.57;;;10.50;99.90;;;;;;4956264;29;20199;-80
2023/10/22 07:25:17;;;;;;;11.87;10.70;;;10.70;99.90;;;;;;4940772;29;20294;-80
2023/10/22 07:27:43;;;;;;;11.13;10.53;;;10.90;99.90;;;;;;4954557;29;20255;-80
2023/10/22 07:30:12;;;;;;;12.03;11.13;;;11.20;99.90;;;;;;4941678;29;20224;-80
2023/10/22 07:32:38;;;;;;;10.57;9.97;;;11.60;99.90;;;;;;4948414;28;20571;-80
2023/10/22 07:35:08;;;;;;;10.57;9.97;;;12.00;99.90;;;;;;4940806;29;20203;-81
2023/10/22 07:37:36;;;;;;;10.00;9.40;;;12.30;99.90;;;;;;4940785;29;20231;-81
2023/10/22 07:40:03;;;;;;;10.60;9.90;;;12.60;99.90;;;;;;4955469;28;20204;-80
2023/10/22 07:42:36;;;;;;;9.77;9.17;;;12.90;99.90;;;;;;4940797;29;20198;-80
2023/10/22 07:45:02;;;;;;;10.30;9.60;;;13.10;99.90;;;;;;4939116;29;20225;-81
2023/10/22 07:47:29;;;;;;;8.90;8.40;;;13.30;99.90;;;;;;4938765;29;20708;-80
2023/10/22 07:49:56;;;;;;;9.63;9.00;;;13.60;99.90;;;;;;4941488;29;20199;-80
2023/10/22 07:52:23;;;;;;;8.87;8.17;;;13.90;99.90;;;;;;4935913;29;20206;-80
2023/10/22 07:54:52;;;;;;;10.10;9.47;;;14.30;99.90;;;;;;4958514;28;20246;-80
2023/10/22 07:57:19;;;;;;;9.00;8.40;;;14.70;99.90;;;;;;4959160;29;20715;-80
2023/10/22 07:59:47;;;;;;;9.77;9.07;;;15.10;99.90;;;;;;4949185;28;20249;-81
2023/10/22 08:02:14;;;;;;;10.43;9.73;;;15.50;99.90;;;;;;4941069;29;20681;-80
2023/10/22 08:04:41;;;;;;;10.03;9.43;;;15.90;99.90;;;;;;4956771;28;20287;-80
2023/10/22 08:07:08;;;;;;;5.17;4.87;;;16.20;99.90;;;;;;4949880;29;20222;-80
2023/10/22 08:09:35;;;;;;;4.97;2.70;;;16.40;99.90;;;;;;4954887;28;20716;-80
2023/10/22 08:12:02;;;;;;;2.60;2.40;;;16.60;99.90;;;;;;4938782;29;20692;-80
2023/10/22 08:14:29;;;;;;;5.27;2.63;;;16.80;99.90;;;;;;4936326;29;20202;-79
2023/10/22 08:16:58;;;;;;;10.20;9.47;;;17.00;99.90;;;;;;4928711;29;20246;-80
2023/10/22 08:19:25;;;;;;;4.30;2.50;;;17.10;99.90;;;;;;4954185;28;20623;-80
2023/10/22 08:21:52;;;;;;;7.93;7.43;;;17.20;99.90;;;;;;4952578;29;20663;-81
2023/10/22 08:24:18;;;;;;;7.80;7.30;;;17.40;99.90;;;;;;4935664;29;20226;-81
2023/10/22 08:26:45;;;;;;;2.60;2.40;;;17.40;99.90;;;;;;4940726;28;20221;-81
2023/10/22 08:29:15;;;;;;;9.50;8.70;;;17.70;99.90;;;;;;4933118;29;20270;-85
2023/10/22 08:31:42;;;;;;;8.90;8.30;;;17.80;99.90;;;;;;4943776;29;20207;-80
2023/10/22 08:34:10;;;;;;;8.27;7.67;;;17.90;99.90;;;;;;4949426;29;20194;-77
2023/10/22 08:36:37;;;;;;;9.30;8.70;;;18.00;99.90;;;;;;4930209;29;20262;-80
2023/10/22 08:39:05;;;;;;;6.90;5.73;;;18.10;99.90;;;;;;4925424;29;20233;-80
2023/10/22 08:41:38;;;;;;;9.50;8.80;;;18.00;99.90;;;;;;4931679;29;20200;-80
2023/10/22 08:44:06;;;;;;;9.40;8.80;;;18.30;99.90;;;;;;4956188;29;20223;-81
2023/10/22 08:46:34;;;;;;;8.60;8.07;;;18.40;99.90;;;;;;4955962;29;20201;-80
2023/10/22 08:49:02;;;;;;;2.40;2.20;;;18.50;99.90;;;;;;4926776;29;20236;-79
2023/10/22 08:51:31;;;;;;;4.20;3.80;;;18.60;99.90;;;;;;4925165;29;20298;-77
2023/10/22 08:53:58;;;;;;;4.00;2.50;;;18.70;99.90;;;;;;4928094;29;20199;-82
2023/10/22 08:56:26;;;;;;;6.10;5.70;;;18.80;99.90;;;;;;4955906;29;20212;-81
2023/10/22 08:58:53;;;;;;;5.90;5.50;;;18.80;99.90;;;;;;4919307;29;20231;-83
2023/10/22 09:01:19;;;;;;;7.73;7.13;;;18.90;99.90;;;;;;4923689;29;20297;-81
2023/10/22 09:03:46;;;;;;;6.37;4.13;;;18.90;99.90;;;;;;4924179;29;20620;-81
2023/10/22 09:06:15;;;;;;;4.10;2.50;;;19.00;99.90;;;;;;4924896;29;20230;-82
2023/10/22 09:08:45;;;;;;;7.47;3.97;;;19.10;99.90;;;;;;4934585;29;20658;-82
2023/10/22 09:11:16;;;;;;;7.70;7.10;;;19.20;99.90;;;;;;4939428;29;20576;-81
2023/10/22 09:13:43;;;;;;;3.23;2.70;;;19.20;99.90;;;;;;4923666;29;20569;-81
2023/10/22 09:16:10;;;;;;;7.70;7.10;;;19.10;99.90;;;;;;4923800;29;20598;-81
2023/10/22 09:18:43;;;;;;;8.23;7.53;;;19.10;99.90;;;;;;4939914;29;20234;-82
2023/10/22 09:21:10;;;;;;;8.00;7.40;;;19.00;99.90;;;;;;4918930;29;20629;-81
2023/10/22 09:23:37;;;;;;;7.87;7.27;;;19.00;99.90;;;;;;4953180;29;20201;-84
2023/10/22 09:26:07;;;;;;;8.10;7.50;;;18.90;99.90;;;;;;4926268;29;20231;-82
2023/10/22 09:28:34;;;;;;;7.60;7.00;;;18.80;99.90;;;;;;4941647;29;20217;-82
2023/10/22 09:31:02;;;;;;;7.30;6.70;;;18.80;99.90;;;;;;4943298;28;20246;-81
2023/10/22 09:33:33;;;;;;;5.23;4.77;;;18.70;99.90;;;;;;4940881;29;20703;-82
2023/10/22 09:36:02;;;;;;;3.50;2.93;;;18.60;99.90;;;;;;4932701;29;20214;-84
2023/10/22 09:38:44;;;;;;;4.20;2.20;;;18.60;99.90;;;;;;4945820;29;20225;-81
2023/10/22 09:41:14;;;;;;;2.63;2.17;;;18.20;99.90;;;;;;4934413;29;20296;-81
2023/10/22 09:43:41;;;;;;;7.90;7.30;;;17.90;99.90;;;;;;4920863;29;20207;-81
2023/10/22 09:46:08;;;;;;;7.70;7.10;;;17.60;99.90;;;;;;4941184;29;20227;-81
2023/10/22 09:48:36;;;;;;;6.60;6.10;;;17.50;99.90;;;;;;4925188;29;20766;-81
2023/10/22 09:51:07;;;;;;;7.57;7.10;;;17.40;99.90;;;;;;4925204;29;20578;-81
2023/10/22 09:53:39;;;;;;;3.87;3.47;;;17.10;99.90;;;;;;4950114;29;20311;-80
2023/10/22 09:56:09;;;;;;;6.43;5.93;;;16.90;99.90;;;;;;4938184;29;20183;-81
2023/10/22 09:58:43;;;;;;;4.70;4.23;;;16.80;99.90;;;;;;4922455;29;20293;-81
2023/10/22 10:01:11;;;;;;;2.80;2.13;;;16.70;99.90;;;;;;4936648;29;20227;-81
2023/10/22 10:03:40;;;;;;;2.90;1.90;;;16.80;99.90;;;;;;4920330;29;20195;-81
2023/10/22 10:06:08;;;;;;;2.93;2.03;;;17.00;99.90;;;;;;4923216;29;20290;-81
2023/10/22 10:08:37;;;;;;;3.03;2.17;;;17.00;99.90;;;;;;4941369;28;20221;-81
2023/10/22 10:11:07;;;;;;;3.43;2.17;;;16.80;99.90;;;;;;4941557;29;20199;-81
2023/10/22 10:13:35;;;;;;;3.60;2.00;;;16.90;99.90;;;;;;4938419;29;20259;-81
2023/10/22 10:16:04;;;;;;;3.33;2.20;;;16.80;99.90;;;;;;4939236;29;20563;-81
2023/10/22 10:18:59;;;;;;;7.40;6.80;;;16.80;99.90;;;;;;4973528;23;20229;-77
2023/10/22 10:21:40;;;;;;;7.10;6.60;;;16.80;99.90;;;;;;4942154;28;20736;-77
2023/10/22 10:24:21;;;;;;;2.23;1.80;;;16.80;99.90;;;;;;4958696;28;20206;-79
2023/10/22 10:26:50;;;;;;;2.53;2.13;;;16.90;99.90;;;;;;4957925;28;20242;-78
2023/10/22 10:29:19;;;;;;;3.00;1.90;;;17.10;99.90;;;;;;4934018;28;20227;-78
2023/10/22 10:31:48;;;;;;;3.77;2.17;;;17.10;99.90;;;;;;4938242;29;20681;-78
2023/10/22 10:34:26;;;;;;;2.57;2.10;;;17.20;99.90;;;;;;4960050;29;20269;-81
2023/10/22 10:36:53;;;;;;;2.37;2.10;;;17.40;99.90;;;;;;4935367;29;20689;-80
2023/10/22 10:39:39;;;;;;;1.90;1.80;;;17.50;99.90;;;;;;4952172;28;20218;-82
2023/10/22 10:42:07;;;;;;;2.22;2.00;;;17.50;99.90;;;;;;4945262;29;20437;-78
2023/10/22 10:49:55;;;;;;;1.90;1.80;;;17.40;99.90;;;;;;5080702;23;20232;-81
2023/10/22 10:56:11;;;;;;;6.93;6.43;;;17.10;99.90;;;;;;4936021;29;20227;-80
2023/10/22 11:06:52;;;;;;;7.47;6.97;;;17.10;99.90;;;;;;4952962;28;20334;-79
2023/10/22 11:28:24;;;;;;;6.80;6.40;;;16.50;99.90;;;;;;4885612;29;20211;-79
2023/10/22 11:35:25;;;;;;;;;;;;;;;;;;;;;
2023/10/22 11:52:54;;;;;;;6.93;6.40;;;16.90;99.90;;;;;;5179824;23;20240;-80
2023/10/22 11:55:26;;;;;;;2.97;2.77;;;16.90;99.90;;;;;;4984123;28;20284;-79
2023/10/22 11:58:04;;;;;;;2.30;2.10;;;16.80;99.90;;;;;;4978859;28;20217;-80
2023/10/22 12:00:55;;;;;;;4.17;3.27;;;16.70;99.90;;;;;;4950449;28;20763;-80
2023/10/22 12:04:12;;;;;;;7.13;6.57;;;16.60;99.90;;;;;;4916736;29;20210;-81
2023/10/22 12:06:47;;;;;;;1.85;1.70;;;16.60;99.90;;;;;;4913194;28;20466;-80
2023/10/22 12:13:07;;;;;;;7.00;6.40;;;16.50;99.90;;;;;;4899509;29;20281;-80
2023/10/22 12:18:36;;;;;;;5.10;4.53;;;16.40;99.90;;;;;;4843647;29;20233;-76
2023/10/22 12:21:03;;;;;;;7.07;6.47;;;16.40;99.90;;;;;;4966944;28;20207;-78
2023/10/22 12:23:30;;;;;;;6.63;6.13;;;16.40;99.90;;;;;;4974831;28;20201;-78
2023/10/22 12:25:56;;;;;;;6.63;6.13;;;16.50;99.90;;;;;;4946514;29;20235;-78
2023/10/22 12:28:28;;;;;;;7.03;6.50;;;16.50;99.90;;;;;;4942587;28;20284;-77
2023/10/22 12:31:14;;;;;;;7.00;6.47;;;16.50;99.90;;;;;;4962971;28;20690;-80
2023/10/22 12:33:41;;;;;;;6.60;6.20;;;16.40;99.90;;;;;;4940112;29;20210;-79
2023/10/22 12:36:08;;;;;;;6.80;6.30;;;16.40;99.90;;;;;;4945295;28;20316;-79
2023/10/22 12:38:35;;;;;;;6.77;6.13;;;16.40;99.90;;;;;;4942266;29;20225;-78
2023/10/22 12:41:04;;;;;;;6.40;5.80;;;16.40;99.90;;;;;;4948510;28;20260;-78
2023/10/22 12:43:37;;;;;;;6.20;5.80;;;16.40;99.90;;;;;;4963627;28;20697;-81
2023/10/22 12:46:11;;;;;;;6.20;5.77;;;16.40;99.90;;;;;;4945668;29;20229;-80
2023/10/22 12:48:40;;;;;;;6.37;5.97;;;16.50;99.90;;;;;;4974793;28;20221;-78
2023/10/22 12:51:07;;;;;;;6.60;6.20;;;16.50;99.90;;;;;;4952968;28;20203;-78
2023/10/22 12:53:34;;;;;;;6.77;6.27;;;16.40;99.90;;;;;;4965553;28;20222;-78
2023/10/22 12:56:01;;;;;;;6.10;5.70;;;16.40;99.90;;;;;;4959593;28;20301;-80
2023/10/22 12:58:28;;;;;;;6.57;6.00;;;16.40;99.90;;;;;;4963927;28;20241;-80
2023/10/22 13:00:56;;;;;;;6.53;6.00;;;16.40;99.90;;;;;;4973744;28;20257;-77
2023/10/22 13:03:24;;;;;;;6.50;6.00;;;16.50;99.90;;;;;;4943786;29;20730;-77
2023/10/22 13:05:52;;;;;;;6.40;6.00;;;16.50;99.90;;;;;;4934971;29;20226;-77
2023/10/22 13:08:19;;;;;;;6.43;5.93;;;16.60;99.90;;;;;;4936024;29;20728;-78
2023/10/22 13:10:49;;;;;;;6.10;5.70;;;16.60;99.90;;;;;;4945967;29;20632;-79
2023/10/22 13:13:16;;;;;;;6.33;5.80;;;16.60;99.90;;;;;;4964784;28;20674;-79
2023/10/22 13:18:53;;;;;;;6.37;5.87;;;16.60;99.90;;;;;;4881927;29;20240;-78
2023/10/22 13:21:20;;;;;;;6.23;5.80;;;16.60;99.90;;;;;;4910471;28;20197;-79
2023/10/22 13:26:37;;;;;;;6.23;5.83;;;16.50;99.90;;;;;;4939910;29;20214;-80
2023/10/22 13:29:17;;;;;;;6.63;6.13;;;16.40;99.90;;;;;;4934405;28;20566;-80
2023/10/22 13:34:58;;;;;;;6.10;5.70;;;16.40;99.90;;;;;;4936941;29;20206;-79
2023/10/22 13:43:46;;;;;;;6.40;5.90;;;16.40;99.90;;;;;;4899977;29;20203;-79
2023/10/22 13:46:22;;;;;;;6.50;6.10;;;16.40;99.90;;;;;;4922224;29;20254;-79
2023/10/22 13:48:49;;;;;;;6.67;6.10;;;16.40;99.90;;;;;;4955763;23;20615;-80
2023/10/22 13:51:18;;;;;;;6.33;5.90;;;16.40;99.90;;;;;;4917610;29;20215;-79
2023/10/22 13:53:44;;;;;;;6.00;5.70;;;16.40;99.90;;;;;;4925468;29;20698;-79
2023/10/22 13:56:11;;;;;;;6.40;6.00;;;16.40;99.90;;;;;;4936269;29;20202;-78
2023/10/22 13:58:38;;;;;;;6.40;6.00;;;16.40;99.90;;;;;;4922081;29;20245;-79
2023/10/22 14:01:21;;;;;;;6.83;6.20;;;16.30;99.90;;;;;;4924465;29;20235;-83
2023/10/22 14:03:51;;;;;;;6.87;6.27;;;16.20;99.90;;;;;;4943110;29;20195;-82
2023/10/22 14:06:41;;;;;;;6.60;6.00;;;16.10;99.90;;;;;;4934683;29;20249;-81
2023/10/22 14:09:24;;;;;;;7.00;6.40;;;16.00;99.90;;;;;;4940740;29;20223;-80